Time;durP1;ratioP1;P1;durP2;ratioP2;P2;SDS_P1;SDS_P2;PMS_P1;PMS_P2;Temp;Humidity;BMP_temperature;BMP_pressure;BME280_temperature;BME280_humidity;BME280_pressure;Samples;Min_cycle;Max_cycle;Signal;HPM_P1;HPM_P2
2023/05/02 00:01:08;;;;;;;25.95;15.05;;;;;;;14.11;73.40;101888.72;5055609;28;20367;-64
2023/05/02 00:03:34;;;;;;;25.90;15.80;;;;;;;14.13;73.26;101898.53;5037713;28;20025;-64
2023/05/02 00:05:59;;;;;;;26.13;15.70;;;;;;;14.10;73.80;101901.13;5055178;28;20060;-63
2023/05/02 00:08:25;;;;;;;24.15;15.32;;;;;;;14.07;73.51;101897.53;5037650;28;20032;-63
2023/05/02 00:10:50;;;;;;;25.20;14.65;;;;;;;14.00;73.72;101900.13;5055357;28;20121;-63
2023/05/02 00:13:16;;;;;;;27.15;15.57;;;;;;;14.00;74.12;101905.44;5055328;28;20025;-63
2023/05/02 00:15:42;;;;;;;22.52;13.82;;;;;;;14.12;73.94;101910.00;5055303;28;20075;-63
2023/05/02 00:18:07;;;;;;;25.15;14.68;;;;;;;14.01;74.17;101914.28;5055311;28;20025;-64
2023/05/02 00:20:33;;;;;;;21.80;14.63;;;;;;;14.04;74.15;101919.63;5055256;28;20040;-63
2023/05/02 00:22:58;;;;;;;25.25;15.02;;;;;;;14.00;74.58;101917.81;5055224;28;20017;-63
2023/05/02 00:25:24;;;;;;;24.73;15.38;;;;;;;13.97;74.64;101917.78;5054982;28;20082;-63
2023/05/02 00:27:49;;;;;;;24.10;14.45;;;;;;;13.93;74.37;101921.25;5055089;28;20168;-63
2023/05/02 00:30:16;;;;;;;22.85;13.18;;;;;;;13.85;75.08;101917.59;5054951;28;20036;-63
2023/05/02 00:32:42;;;;;;;23.52;14.63;;;;;;;13.66;75.17;101925.31;5055092;28;20381;-64
2023/05/02 00:35:08;;;;;;;20.90;12.18;;;;;;;13.58;75.23;101932.25;5036812;28;20119;-64
2023/05/02 00:37:33;;;;;;;19.50;12.18;;;;;;;13.61;75.74;101939.38;5055210;28;20067;-64
2023/05/02 00:39:58;;;;;;;23.55;13.95;;;;;;;13.49;75.30;101930.34;5054719;28;20029;-63
2023/05/02 00:42:24;;;;;;;21.13;13.20;;;;;;;13.40;75.92;101938.13;5055089;28;20086;-63
2023/05/02 00:44:49;;;;;;;22.60;13.50;;;;;;;13.30;76.22;101932.66;5054774;28;20098;-64
2023/05/02 00:47:15;;;;;;;20.10;12.23;;;;;;;13.27;76.55;101936.16;5054687;28;20032;-63
2023/05/02 00:49:41;;;;;;;19.88;12.43;;;;;;;13.25;76.16;101935.25;5036960;28;20102;-63
2023/05/02 00:52:07;;;;;;;19.17;12.27;;;;;;;13.17;75.95;101940.38;5020269;28;20025;-64
2023/05/02 00:54:32;;;;;;;23.63;12.35;;;;;;;13.10;76.24;101940.22;5054576;28;20079;-64
2023/05/02 00:56:58;;;;;;;21.42;12.07;;;;;;;13.11;76.25;101942.94;5053768;28;20029;-63
2023/05/02 00:59:24;;;;;;;20.90;11.85;;;;;;;13.05;76.52;101945.47;5054458;28;20033;-63
2023/05/02 01:01:58;;;;;;;20.73;12.35;;;;;;;13.05;76.75;101945.47;5054507;28;20116;-64
2023/05/02 01:05:02;;;;;;;21.35;12.02;;;;;;;13.08;76.35;101945.53;5054619;28;20028;-63
2023/05/02 01:07:46;;;;;;;20.20;12.13;;;;;;;13.03;76.72;101942.78;5031248;28;20053;-63
2023/05/02 01:10:20;;;;;;;16.55;10.95;;;;;;;13.02;76.32;101945.44;5034197;28;20033;-64
2023/05/02 01:12:59;;;;;;;14.88;9.00;;;;;;;12.99;75.40;101940.06;5034331;28;20489;-64
2023/05/02 01:15:25;;;;;;;16.30;9.15;;;;;;;12.84;75.62;101940.66;5034312;28;20075;-64
2023/05/02 01:17:53;;;;;;;14.52;9.25;;;;;;;12.79;75.95;101947.63;5034130;28;20663;-63
2023/05/02 01:20:22;;;;;;;14.13;8.80;;;;;;;12.76;76.08;101943.19;5034428;28;20029;-63
2023/05/02 01:22:48;;;;;;;12.30;8.13;;;;;;;12.81;75.67;101940.63;5034115;28;20078;-63
2023/05/02 01:25:48;;;;;;;16.02;8.88;;;;;;;12.86;75.22;101944.25;5033992;28;20030;-64
2023/05/02 01:28:46;;;;;;;15.93;8.48;;;;;;;12.93;75.37;101938.19;5033927;28;20501;-63
2023/05/02 01:31:15;;;;;;;13.65;7.47;;;;;;;12.95;75.07;101938.22;5033970;28;20029;-63
2023/05/02 01:33:41;;;;;;;13.02;8.10;;;;;;;12.91;75.04;101939.00;5033707;28;20123;-63
2023/05/02 01:36:07;;;;;;;14.77;8.25;;;;;;;12.90;74.93;101937.25;5033785;28;20104;-63
2023/05/02 01:38:34;;;;;;;15.70;7.75;;;;;;;12.94;75.06;101944.38;5033780;28;20029;-64
2023/05/02 01:41:04;;;;;;;12.25;7.93;;;;;;;12.97;74.86;101944.41;5033763;28;20103;-63
2023/05/02 01:43:32;;;;;;;13.93;8.75;;;;;;;12.97;74.99;101947.97;5033952;28;20484;-63
2023/05/02 01:45:59;;;;;;;15.60;9.30;;;;;;;12.89;75.45;101943.38;5033694;28;20026;-63
2023/05/02 01:48:27;;;;;;;13.85;8.82;;;;;;;12.90;75.76;101959.34;5033634;28;20361;-64
2023/05/02 01:50:54;;;;;;;14.63;8.77;;;;;;;13.03;75.61;101953.41;5033765;28;20032;-64
2023/05/02 01:53:21;;;;;;;14.07;9.05;;;;;;;13.03;75.36;101963.13;5033666;28;20033;-63
2023/05/02 01:55:48;;;;;;;14.90;8.93;;;;;;;13.05;75.52;101961.38;5033398;28;20033;-64
2023/05/02 01:58:15;;;;;;;13.57;8.75;;;;;;;13.01;75.39;101957.78;5015653;28;20034;-64
2023/05/02 02:00:44;;;;;;;15.00;9.18;;;;;;;12.96;75.57;101964.75;5015615;28;20112;-64
2023/05/02 02:03:10;;;;;;;13.07;8.88;;;;;;;12.90;76.10;101963.75;5033671;28;20123;-63
2023/05/02 02:05:38;;;;;;;12.95;8.23;;;;;;;12.88;76.55;101970.78;5035114;28;20401;-63
2023/05/02 02:08:03;;;;;;;16.65;9.18;;;;;;;12.84;76.46;101968.94;5053157;28;20029;-64
2023/05/02 02:10:34;;;;;;;17.63;10.20;;;;;;;12.71;77.37;101973.09;5053054;28;20025;-63
2023/05/02 02:13:17;;;;;;;19.27;10.98;;;;;;;12.63;77.58;101970.28;5035329;28;20058;-64
2023/05/02 02:15:46;;;;;;;15.30;9.50;;;;;;;12.70;77.99;101974.88;5053233;28;20021;-64
2023/05/02 02:18:25;;;;;;;17.50;10.15;;;;;;;12.74;77.80;101973.16;5053355;28;20025;-63
2023/05/02 02:20:52;;;;;;;17.00;10.30;;;;;;;12.78;77.54;101978.56;5053190;28;20028;-63
2023/05/02 02:23:21;;;;;;;16.75;10.27;;;;;;;12.78;77.82;101980.31;5035167;28;20044;-63
2023/05/02 02:25:48;;;;;;;15.35;10.57;;;;;;;12.76;77.87;101979.38;5053057;28;20146;-64
2023/05/02 02:28:14;;;;;;;22.08;11.27;;;;;;;12.72;78.45;101980.22;5053096;28;20024;-63
2023/05/02 02:30:39;;;;;;;17.83;10.57;;;;;;;12.78;78.61;101993.59;5052859;28;20056;-64
2023/05/02 02:33:05;;;;;;;20.77;11.52;;;;;;;12.72;78.63;101982.88;5035196;28;20029;-64
2023/05/02 02:35:36;;;;;;;18.02;11.77;;;;;;;12.66;79.19;101985.38;5052782;28;20033;-64
2023/05/02 02:38:18;;;;;;;18.88;11.13;;;;;;;12.67;79.11;101979.22;5052909;28;20120;-63
2023/05/02 02:40:48;;;;;;;17.80;12.27;;;;;;;12.54;79.65;101992.22;5052883;28;20029;-64
2023/05/02 02:43:31;;;;;;;22.40;12.07;;;;;;;12.51;79.51;101997.47;5052965;28;20024;-63
2023/05/02 02:46:24;;;;;;;20.67;12.38;;;;;;;12.45;80.18;101999.06;5052897;28;20029;-63
2023/05/02 02:49:21;;;;;;;20.13;12.00;;;;;;;12.42;80.72;101997.28;5052915;28;20053;-63
2023/05/02 02:51:55;;;;;;;19.65;12.57;;;;;;;12.35;80.88;102005.06;5047096;28;20033;-63
2023/05/02 02:54:50;;;;;;;16.65;11.43;;;;;;;12.45;80.57;102004.38;5052641;28;20037;-63
2023/05/02 02:57:25;;;;;;;18.45;11.40;;;;;;;12.46;80.76;102009.75;5053078;28;20040;-64
2023/05/02 03:00:04;;;;;;;17.75;11.05;;;;;;;12.49;80.41;102004.47;5052640;28;20025;-63
2023/05/02 03:02:31;;;;;;;18.83;11.48;;;;;;;12.41;80.80;102005.16;5035436;28;20029;-63
2023/05/02 03:04:57;;;;;;;16.55;11.30;;;;;;;12.44;80.97;102015.84;5052074;28;20055;-64
2023/05/02 03:07:24;;;;;;;17.33;11.90;;;;;;;12.41;81.06;102024.63;5052589;28;20102;-64
2023/05/02 03:09:49;;;;;;;17.50;11.05;;;;;;;12.43;81.53;102014.97;5052628;28;20033;-64
2023/05/02 03:12:14;;;;;;;18.65;11.52;;;;;;;12.42;81.52;102021.13;5052437;28;20029;-63
2023/05/02 03:14:40;;;;;;;17.98;11.25;;;;;;;12.44;81.48;102027.34;5052411;28;20022;-63
2023/05/02 03:17:09;;;;;;;15.75;10.70;;;;;;;12.44;81.69;102032.66;5052519;28;20056;-63
2023/05/02 03:19:35;;;;;;;16.80;11.00;;;;;;;12.47;81.30;102045.97;5053327;28;20059;-63
2023/05/02 03:22:03;;;;;;;19.38;11.32;;;;;;;12.46;81.79;102036.25;5056507;28;20029;-64
2023/05/02 03:24:28;;;;;;;20.55;11.23;;;;;;;12.45;82.00;102044.16;5056170;28;20035;-64
2023/05/02 03:26:58;;;;;;;19.05;10.57;;;;;;;12.45;82.18;102044.16;5056489;28;20024;-65
2023/05/02 03:29:24;;;;;;;18.85;10.50;;;;;;;12.51;81.84;102041.66;5056032;28;20481;-63
2023/05/02 03:31:50;;;;;;;16.50;10.48;;;;;;;12.51;82.25;102033.69;5056381;28;20029;-64
2023/05/02 03:34:15;;;;;;;17.63;10.15;;;;;;;12.58;82.23;102040.00;5056015;28;20044;-63
2023/05/02 03:36:41;;;;;;;15.38;10.05;;;;;;;12.59;82.10;102042.72;5038060;28;20021;-63
2023/05/02 03:39:06;;;;;;;15.27;10.02;;;;;;;12.54;82.76;102042.59;5056167;28;20493;-64
2023/05/02 03:41:32;;;;;;;16.58;10.35;;;;;;;12.50;83.09;102055.75;5056020;28;20364;-63
2023/05/02 03:43:57;;;;;;;14.75;8.07;;;;;;;12.43;83.36;102044.13;5055873;28;20136;-64
2023/05/02 03:46:22;;;;;;;16.77;8.90;;;;;;;12.43;83.72;102053.84;5056020;28;20029;-63
2023/05/02 03:48:48;;;;;;;16.90;7.68;;;;;;;12.35;84.17;102052.75;5055826;28;20028;-64
2023/05/02 03:51:13;;;;;;;13.13;6.68;;;;;;;12.36;84.36;102050.13;5055760;28;20029;-63
2023/05/02 03:53:38;;;;;;;12.50;7.35;;;;;;;12.39;83.62;102052.88;5055733;28;20025;-63
2023/05/02 03:56:06;;;;;;;13.73;7.20;;;;;;;12.33;84.21;102060.66;5037682;28;20490;-63
2023/05/02 03:58:32;;;;;;;14.70;5.88;;;;;;;12.31;83.61;102059.75;5055586;28;20367;-64
2023/05/02 04:00:57;;;;;;;11.63;4.95;;;;;;;12.27;83.21;102069.38;5055577;28;20040;-64
2023/05/02 04:03:23;;;;;;;12.30;5.03;;;;;;;12.21;83.18;102076.31;5055545;28;20029;-63
2023/05/02 04:05:50;;;;;;;10.75;4.57;;;;;;;12.23;82.55;102082.50;5037316;28;20037;-63
2023/05/02 04:08:16;;;;;;;14.35;4.07;;;;;;;12.20;81.81;102082.44;5055763;28;20025;-63
2023/05/02 04:10:41;;;;;;;12.52;3.95;;;;;;;12.10;80.26;102091.94;5037307;28;20481;-64
2023/05/02 04:13:07;;;;;;;11.25;3.83;;;;;;;11.94;80.35;102095.03;5055379;28;20112;-63
2023/05/02 04:15:32;;;;;;;10.10;3.50;;;;;;;11.85;79.67;102095.72;5055405;28;20022;-64
2023/05/02 04:17:58;;;;;;;11.45;3.30;;;;;;;11.86;79.26;102102.81;5055315;28;20048;-64
2023/05/02 04:20:23;;;;;;;6.97;2.92;;;;;;;11.81;77.69;102100.84;5055533;28;20091;-64
2023/05/02 04:22:49;;;;;;;9.88;2.72;;;;;;;11.76;77.67;102100.75;5055202;28;20416;-64
2023/05/02 04:25:15;;;;;;;6.82;2.50;;;;;;;11.75;76.95;102107.78;5054832;28;20025;-63
2023/05/02 04:27:42;;;;;;;8.07;2.78;;;;;;;11.66;75.44;102119.91;5037272;28;20108;-64
2023/05/02 04:30:09;;;;;;;6.32;2.30;;;;;;;11.60;75.57;102117.97;5055158;28;20080;-64
2023/05/02 04:32:35;;;;;;;6.32;2.42;;;;;;;11.63;75.74;102117.16;5036204;28;20059;-63
2023/05/02 04:35:07;;;;;;;6.07;2.40;;;;;;;11.59;75.50;102124.13;5054992;28;20052;-64
2023/05/02 04:37:32;;;;;;;6.60;2.40;;;;;;;11.54;74.92;102128.41;5054805;28;20029;-64
2023/05/02 04:39:58;;;;;;;8.73;2.60;;;;;;;11.58;75.02;102124.97;5054643;28;20032;-64
2023/05/02 04:42:23;;;;;;;7.18;2.42;;;;;;;11.60;75.01;102146.19;5036904;28;20029;-64
2023/05/02 04:44:49;;;;;;;7.75;2.42;;;;;;;11.68;74.00;102142.91;5054531;28;20029;-64
2023/05/02 04:47:15;;;;;;;5.03;2.20;;;;;;;11.69;73.68;102144.72;5036637;28;20026;-63
2023/05/02 04:49:41;;;;;;;6.10;2.20;;;;;;;11.71;73.29;102145.63;5036690;28;20066;-63
2023/05/02 04:52:08;;;;;;;7.88;2.30;;;;;;;11.74;73.15;102152.78;5036843;28;20028;-63
2023/05/02 04:54:34;;;;;;;10.68;2.67;;;;;;;11.73;72.36;102165.13;5020544;28;20133;-63
2023/05/02 04:57:02;;;;;;;8.15;2.35;;;;;;;11.78;71.72;102168.78;5036693;28;20541;-63
2023/05/02 04:59:27;;;;;;;8.20;2.22;;;;;;;11.84;71.17;102181.31;5054555;28;20037;-63
2023/05/02 05:01:52;;;;;;;6.05;2.15;;;;;;;11.89;71.36;102174.38;5054446;28;20132;-64
2023/05/02 05:04:18;;;;;;;5.32;2.25;;;;;;;11.94;70.71;102179.81;5054458;28;20028;-64
2023/05/02 05:06:43;;;;;;;6.88;2.25;;;;;;;11.94;70.98;102178.06;5053713;28;20045;-63
2023/05/02 05:09:09;;;;;;;5.10;2.20;;;;;;;11.93;70.12;102184.22;5054271;28;20563;-64
2023/05/02 05:11:34;;;;;;;6.65;2.47;;;;;;;11.97;70.47;102180.78;5054323;28;20390;-63
2023/05/02 05:13:59;;;;;;;4.38;2.10;;;;;;;12.00;70.41;102183.53;5054347;28;20029;-63
2023/05/02 05:16:25;;;;;;;6.78;2.40;;;;;;;12.03;70.25;102191.56;5054270;28;20055;-63
2023/05/02 05:18:52;;;;;;;4.88;2.08;;;;;;;12.04;70.01;102200.41;5054145;28;20386;-63
2023/05/02 05:21:18;;;;;;;7.32;2.20;;;;;;;11.92;70.16;102203.63;5054123;28;20093;-63
2023/05/02 05:23:44;;;;;;;5.50;2.25;;;;;;;11.92;69.95;102215.97;5054063;28;20111;-63
2023/05/02 05:26:16;;;;;;;8.32;2.33;;;;;;;11.92;69.75;102213.31;5036660;28;20029;-63
2023/05/02 05:28:42;;;;;;;6.40;2.20;;;;;;;11.88;69.34;102211.44;5054031;28;20517;-64
2023/05/02 05:31:10;;;;;;;6.78;2.25;;;;;;;11.90;68.99;102209.72;5035860;28;20276;-64
2023/05/02 05:33:36;;;;;;;5.03;2.20;;;;;;;11.86;68.55;102216.72;5054038;28;20378;-64
2023/05/02 05:36:06;;;;;;;6.63;2.03;;;;;;;11.81;68.17;102214.72;5053988;28;20031;-63
2023/05/02 05:38:32;;;;;;;5.93;2.20;;;;;;;11.88;66.98;102222.94;5053693;28;20456;-63
2023/05/02 05:40:57;;;;;;;7.35;2.35;;;;;;;11.88;67.69;102220.28;5053653;28;20033;-63
2023/05/02 05:43:22;;;;;;;9.13;2.30;;;;;;;11.91;67.12;102230.97;5035589;28;20447;-63
2023/05/02 05:45:51;;;;;;;6.85;2.10;;;;;;;12.00;66.92;102232.97;5053594;28;20199;-63
2023/05/02 05:48:16;;;;;;;10.32;2.20;;;;;;;11.97;65.76;102235.53;5053570;28;20099;-63
2023/05/02 05:50:42;;;;;;;6.63;2.10;;;;;;;12.06;65.72;102232.22;5053576;28;20482;-63
2023/05/02 05:53:07;;;;;;;8.02;2.40;;;;;;;11.96;65.05;102234.63;5053655;28;20036;-64
2023/05/02 05:55:32;;;;;;;3.92;1.80;;;;;;;11.89;65.32;102243.25;5053331;28;20033;-63
2023/05/02 05:57:58;;;;;;;6.03;2.33;;;;;;;11.99;65.48;102242.69;5053363;28;20036;-63
2023/05/02 06:00:23;;;;;;;7.65;2.50;;;;;;;12.18;65.50;102246.72;5053428;28;20124;-63
2023/05/02 06:02:48;;;;;;;7.82;3.70;;;;;;;12.41;64.80;102247.28;5053456;28;20029;-63
2023/05/02 06:05:14;;;;;;;7.03;3.88;;;;;;;12.68;64.60;102254.19;5053183;28;20029;-64
2023/05/02 06:07:40;;;;;;;6.90;3.78;;;;;;;12.96;63.19;102253.06;5053184;28;20048;-63
2023/05/02 06:10:05;;;;;;;5.43;2.70;;;;;;;13.14;62.32;102249.94;5053091;28;20037;-63
2023/05/02 06:12:31;;;;;;;3.67;2.10;;;;;;;13.29;62.07;102258.28;5053089;28;20032;-63
2023/05/02 06:14:56;;;;;;;5.28;2.25;;;;;;;13.50;60.96;102260.53;5053114;28;20025;-63
2023/05/02 06:17:21;;;;;;;7.93;2.20;;;;;;;13.62;60.95;102274.06;5053074;28;20037;-63
2023/05/02 06:19:47;;;;;;;5.45;2.38;;;;;;;13.76;60.39;102261.94;5053099;28;20379;-64
2023/05/02 06:22:13;;;;;;;7.55;2.47;;;;;;;13.68;60.80;102266.22;5052889;28;20035;-64
2023/05/02 06:24:38;;;;;;;7.85;2.55;;;;;;;13.67;60.13;102268.84;5052959;28;20029;-63
2023/05/02 06:27:04;;;;;;;9.63;2.50;;;;;;;13.59;60.83;102281.97;5052968;28;20025;-63
2023/05/02 06:29:29;;;;;;;5.70;2.10;;;;;;;13.60;60.67;102286.41;5052961;28;20377;-63
2023/05/02 06:31:55;;;;;;;10.07;2.60;;;;;;;13.57;61.37;102286.31;5053079;28;20082;-63
2023/05/02 06:34:21;;;;;;;9.13;2.50;;;;;;;13.79;61.70;102290.34;5052870;28;20072;-63
2023/05/02 06:36:46;;;;;;;9.07;2.40;;;;;;;13.88;62.08;102294.97;5052712;28;20072;-64
2023/05/02 06:39:12;;;;;;;6.80;2.40;;;;;;;13.96;61.42;102295.97;5053027;28;20123;-63
2023/05/02 06:41:37;;;;;;;7.45;2.50;;;;;;;13.87;61.68;102304.66;5052921;28;20108;-64
2023/05/02 06:44:03;;;;;;;9.77;2.67;;;;;;;13.62;61.21;102311.25;5052818;28;20063;-63
2023/05/02 06:46:32;;;;;;;7.47;3.13;;;;;;;13.40;62.28;102320.47;5053106;28;20091;-63
2023/05/02 06:48:57;;;;;;;12.38;2.80;;;;;;;13.43;63.07;102317.91;5052629;28;20024;-63
2023/05/02 06:51:23;;;;;;;7.53;2.53;;;;;;;13.38;62.55;102335.50;5035033;28;20025;-63
2023/05/02 06:53:48;;;;;;;13.55;2.80;;;;;;;13.48;62.20;102321.53;5052797;28;20028;-63
2023/05/02 06:56:14;;;;;;;8.10;2.60;;;;;;;13.66;62.19;102321.09;5038481;28;20029;-63
2023/05/02 06:58:39;;;;;;;12.20;2.50;;;;;;;13.77;62.26;102334.56;5056865;28;20029;-63
2023/05/02 07:01:05;;;;;;;10.15;2.72;;;;;;;13.74;61.45;102329.19;5056722;28;20033;-63
2023/05/02 07:03:30;;;;;;;9.10;2.80;;;;;;;13.65;60.64;102335.19;5056962;28;20044;-63
2023/05/02 07:05:56;;;;;;;10.13;2.70;;;;;;;13.64;61.79;102338.72;5056267;28;20495;-63
2023/05/02 07:08:22;;;;;;;10.93;2.83;;;;;;;13.68;61.47;102332.63;5056573;28;20044;-64
2023/05/02 07:10:48;;;;;;;9.07;2.80;;;;;;;13.68;61.06;102340.59;5056786;28;20033;-64
2023/05/02 07:13:14;;;;;;;11.75;3.05;;;;;;;13.74;61.15;102348.69;5056876;28;20025;-64
2023/05/02 07:15:39;;;;;;;10.70;3.33;;;;;;;13.78;61.57;102352.31;5056630;28;20364;-63
2023/05/02 07:18:05;;;;;;;9.52;2.70;;;;;;;13.78;60.55;102354.97;5056471;28;20493;-64
2023/05/02 07:20:31;;;;;;;8.68;2.85;;;;;;;13.69;60.56;102358.31;5056345;28;20037;-63
2023/05/02 07:22:56;;;;;;;8.80;2.70;;;;;;;13.62;59.93;102360.78;5056309;28;20025;-63
2023/05/02 07:25:22;;;;;;;14.18;3.10;;;;;;;13.65;60.65;102368.84;5038360;28;20441;-64
2023/05/02 07:27:47;;;;;;;9.55;3.10;;;;;;;13.77;60.58;102367.34;5056184;28;20029;-64
2023/05/02 07:30:13;;;;;;;11.52;3.22;;;;;;;13.86;60.59;102377.28;5056447;28;20025;-63
2023/05/02 07:32:38;;;;;;;13.95;3.15;;;;;;;13.82;58.50;102367.44;5056232;28;20056;-64
2023/05/02 07:35:04;;;;;;;8.80;3.15;;;;;;;13.89;59.35;102374.69;5055965;28;20428;-63
2023/05/02 07:37:34;;;;;;;7.32;2.92;;;;;;;14.03;58.21;102377.66;5056309;28;20052;-64
2023/05/02 07:39:59;;;;;;;12.48;3.05;;;;;;;14.59;58.87;102371.69;5055916;28;20478;-63
2023/05/02 07:42:31;;;;;;;11.52;3.10;;;;;;;14.81;56.00;102376.53;5055958;28;20039;-62
2023/05/02 07:44:57;;;;;;;9.30;3.13;;;;;;;14.78;55.52;102379.16;5056037;28;20112;-65
2023/05/02 07:47:23;;;;;;;10.30;3.00;;;;;;;14.63;55.18;102386.84;5056110;28;20143;-64
2023/05/02 07:49:52;;;;;;;8.30;2.72;;;;;;;14.48;56.12;102384.78;5055813;28;20485;-62
2023/05/02 07:52:19;;;;;;;11.98;3.22;;;;;;;14.12;56.69;102395.56;5056053;28;20018;-64
2023/05/02 07:54:44;;;;;;;11.77;3.38;;;;;;;13.84;56.70;102397.63;5053305;28;20017;-62
2023/05/02 07:57:11;;;;;;;12.60;2.90;;;;;;;13.60;55.11;102403.25;5055527;28;20029;-62
2023/05/02 07:59:37;;;;;;;8.88;2.70;;;;;;;13.39;56.27;102406.31;5055475;28;20024;-62
2023/05/02 08:02:03;;;;;;;8.65;3.13;;;;;;;13.31;56.41;102404.31;5055439;28;20037;-62
2023/05/02 08:04:28;;;;;;;10.77;2.75;;;;;;;13.25;56.64;102408.63;5055274;28;20033;-62
2023/05/02 08:06:54;;;;;;;11.60;3.50;;;;;;;13.12;57.00;102405.59;5054952;28;20083;-62
2023/05/02 08:09:19;;;;;;;12.30;3.15;;;;;;;13.05;57.49;102407.19;5055334;28;20498;-62
2023/05/02 08:11:45;;;;;;;7.93;2.80;;;;;;;13.09;56.85;102410.81;5037259;28;20368;-63
2023/05/02 08:14:11;;;;;;;8.43;2.83;;;;;;;12.96;55.94;102418.47;5037391;28;20360;-62
2023/05/02 08:16:36;;;;;;;9.68;2.60;;;;;;;12.98;56.06;102424.72;5037422;28;20025;-62
2023/05/02 08:19:02;;;;;;;8.70;2.90;;;;;;;13.01;56.31;102424.78;5055159;28;20371;-62
2023/05/02 08:21:28;;;;;;;8.55;3.00;;;;;;;13.13;56.23;102428.63;5055402;28;20029;-61
2023/05/02 08:23:57;;;;;;;8.43;3.00;;;;;;;13.24;56.08;102428.09;5055146;28;20363;-62
2023/05/02 08:26:23;;;;;;;13.82;3.22;;;;;;;13.28;55.69;102427.31;5054951;28;20070;-62
2023/05/02 08:28:52;;;;;;;8.52;2.60;;;;;;;13.36;55.75;102437.19;5054832;28;20035;-62
2023/05/02 08:31:17;;;;;;;7.35;2.60;;;;;;;13.48;55.54;102437.50;5054834;28;20025;-62
2023/05/02 08:33:43;;;;;;;11.68;2.85;;;;;;;13.61;53.92;102438.69;5054815;28;20025;-63
2023/05/02 08:36:16;;;;;;;10.00;3.00;;;;;;;13.83;54.66;102448.06;5054716;28;20506;-62
2023/05/02 08:38:42;;;;;;;8.35;2.70;;;;;;;13.97;53.69;102451.94;5054857;28;20067;-61
2023/05/02 08:41:12;;;;;;;11.15;2.83;;;;;;;14.00;52.09;102449.34;5054702;28;20036;-62
2023/05/02 08:43:39;;;;;;;7.88;2.67;;;;;;;14.20;52.22;102450.69;5054901;28;20073;-62
2023/05/02 08:46:08;;;;;;;7.65;2.60;;;;;;;14.33;51.79;102451.84;5054475;28;20057;-62
2023/05/02 08:48:38;;;;;;;8.38;2.72;;;;;;;14.55;51.35;102457.63;5054606;28;20029;-62
2023/05/02 08:51:12;;;;;;;6.78;2.60;;;;;;;14.64;50.09;102452.50;5054437;28;20025;-62
2023/05/02 08:53:39;;;;;;;9.57;2.80;;;;;;;14.68;51.07;102455.22;5054541;28;20028;-62
2023/05/02 08:56:09;;;;;;;8.20;2.60;;;;;;;15.02;50.51;102453.22;5054507;28;20104;-62
2023/05/02 08:58:36;;;;;;;6.40;2.30;;;;;;;15.39;48.75;102459.19;5054457;28;20033;-62
2023/05/02 09:01:08;;;;;;;8.80;2.60;;;;;;;15.62;47.71;102456.91;5036741;28;20559;-62
2023/05/02 09:03:34;;;;;;;11.35;2.78;;;;;;;15.70;46.26;102461.50;5054515;28;20033;-62
2023/05/02 09:06:03;;;;;;;7.18;2.47;;;;;;;15.81;45.70;102468.78;5054049;28;20082;-62
2023/05/02 09:08:29;;;;;;;6.97;2.78;;;;;;;15.73;45.87;102471.34;5054738;28;20021;-62
2023/05/02 09:10:55;;;;;;;7.55;2.72;;;;;;;15.76;46.05;102464.28;5054409;28;20033;-62
2023/05/02 09:13:33;;;;;;;9.45;2.90;;;;;;;15.90;46.81;102475.16;5054217;28;20032;-62
2023/05/02 09:16:01;;;;;;;5.68;2.60;;;;;;;16.28;44.94;102477.47;5054240;28;20111;-62
2023/05/02 09:18:29;;;;;;;5.53;2.40;;;;;;;16.68;42.76;102467.28;5053595;28;20021;-62
2023/05/02 09:20:56;;;;;;;9.18;2.85;;;;;;;16.74;43.14;102480.72;5053970;28;20027;-62
2023/05/02 09:23:32;;;;;;;9.00;2.45;;;;;;;16.45;44.31;102475.91;5053954;28;20099;-61
2023/05/02 09:25:58;;;;;;;7.90;2.47;;;;;;;16.33;45.90;102491.75;5019599;28;20362;-62
2023/05/02 09:28:46;;;;;;;4.75;2.20;;;;;;;16.18;45.92;102496.88;5053852;28;20061;-62
2023/05/02 09:31:15;;;;;;;8.18;3.08;;;;;;;16.08;45.49;102498.50;5053746;28;20486;-62
2023/05/02 09:33:41;;;;;;;9.02;2.80;;;;;;;16.10;45.43;102506.53;5054068;28;20027;-62
2023/05/02 09:36:08;;;;;;;7.93;2.75;;;;;;;16.08;45.39;102494.94;5053413;28;20378;-62
2023/05/02 09:38:34;;;;;;;7.93;2.40;;;;;;;16.07;44.89;102501.16;5053940;28;20028;-61
2023/05/02 09:41:02;;;;;;;10.15;2.85;;;;;;;16.10;45.28;102498.53;5053587;28;20029;-61
2023/05/02 09:43:27;;;;;;;7.38;2.88;;;;;;;16.09;44.95;102508.28;5053888;28;20064;-62
2023/05/02 09:46:01;;;;;;;15.13;3.00;;;;;;;16.13;45.01;102503.91;5053548;28;20493;-62
2023/05/02 09:48:28;;;;;;;11.70;2.95;;;;;;;16.02;45.67;102509.09;5035785;28;20041;-63
2023/05/02 09:50:54;;;;;;;11.10;3.00;;;;;;;16.11;45.36;102516.34;5053517;28;20061;-64
2023/05/02 09:53:20;;;;;;;8.13;2.90;;;;;;;16.12;46.01;102512.78;5053401;28;20032;-63
2023/05/02 09:55:46;;;;;;;11.65;3.40;;;;;;;16.10;46.41;102515.44;5053289;28;20025;-63
2023/05/02 09:58:22;;;;;;;18.88;3.45;;;;;;;16.30;44.96;102507.72;5035634;28;20214;-63
2023/05/02 10:00:49;;;;;;;7.90;3.08;;;;;;;16.74;47.14;102521.69;5035576;28;20088;-64
2023/05/02 10:03:16;;;;;;;11.80;3.00;;;;;;;17.18;44.56;102517.72;5053596;28;20021;-63
2023/05/02 10:05:43;;;;;;;12.18;3.10;;;;;;;17.54;44.74;102525.16;5053396;28;20036;-63
2023/05/02 10:08:10;;;;;;;8.77;3.08;;;;;;;17.82;41.58;102522.78;5053514;28;20033;-62
2023/05/02 10:10:38;;;;;;;10.93;3.28;;;;;;;18.16;41.77;102526.56;5053103;28;20035;-62
2023/05/02 10:13:05;;;;;;;13.05;3.40;;;;;;;18.61;41.13;102527.69;5053404;28;20025;-63
2023/05/02 10:15:32;;;;;;;9.50;3.20;;;;;;;18.87;40.57;102512.66;5053082;28;20401;-62
2023/05/02 10:18:02;;;;;;;6.75;2.92;;;;;;;18.99;39.87;102523.41;5053316;28;20099;-62
2023/05/02 10:20:34;;;;;;;8.88;3.17;;;;;;;18.85;39.63;102529.63;5053020;28;20029;-62
2023/05/02 10:23:00;;;;;;;;;;;;;;;18.97;39.94;102521.59;5053483;28;20105;-62
2023/05/02 10:25:27;;;;;;;13.27;3.10;;;;;;;18.40;38.79;102528.47;5053153;28;20305;-62
2023/05/02 10:27:55;;;;;;;11.80;3.25;;;;;;;18.01;40.42;102533.59;5053005;28;20033;-62
2023/05/02 10:30:22;;;;;;;8.40;2.88;;;;;;;17.87;40.60;102532.63;5052146;28;20119;-62
2023/05/02 10:32:48;;;;;;;8.35;3.00;;;;;;;17.71;39.85;102528.88;5052798;28;20029;-62
2023/05/02 10:35:15;;;;;;;8.48;3.28;;;;;;;17.71;40.28;102538.69;5052614;28;20083;-62
2023/05/02 10:37:40;;;;;;;11.00;3.05;;;;;;;17.67;41.06;102534.19;5053127;28;20120;-63
2023/05/02 10:40:11;;;;;;;9.82;3.00;;;;;;;17.70;40.49;102534.22;5052845;28;20478;-62
2023/05/02 10:42:39;;;;;;;8.05;3.10;;;;;;;17.77;39.68;102539.69;5053072;28;20028;-62
2023/05/02 10:45:29;;;;;;;7.55;2.90;;;;;;;17.88;40.10;102531.72;5052810;28;20036;-62
2023/05/02 10:48:19;;;;;;;8.95;2.97;;;;;;;17.98;39.89;102535.34;5052687;28;20024;-62
2023/05/02 10:51:00;;;;;;;8.02;2.60;;;;;;;17.86;40.76;102525.47;5052541;28;20017;-62
2023/05/02 10:53:35;;;;;;;7.50;2.60;;;;;;;17.59;40.48;102533.22;5052885;28;20025;-62
2023/05/02 10:56:08;;;;;;;9.10;2.95;;;;;;;17.35;39.06;102526.78;5052623;28;20148;-63
2023/05/02 10:58:33;;;;;;;8.35;3.03;;;;;;;17.73;39.23;102521.78;5052709;28;20029;-62
2023/05/02 11:01:23;;;;;;;7.32;2.72;;;;;;;18.46;37.85;102528.53;5034882;28;20395;-62
2023/05/02 11:03:58;;;;;;;7.45;2.67;;;;;;;19.16;37.12;102536.84;5052693;28;20025;-62
2023/05/02 11:06:26;;;;;;;10.20;2.90;;;;;;;19.08;36.41;102532.34;5017921;28;20120;-62
2023/05/02 11:08:52;;;;;;;6.43;2.67;;;;;;;19.05;35.01;102535.91;5052577;28;20478;-62
2023/05/02 11:11:42;;;;;;;8.35;2.88;;;;;;;18.90;37.32;102544.81;5052355;28;20074;-63
2023/05/02 11:14:31;;;;;;;6.38;2.70;;;;;;;18.94;35.21;102541.25;5052798;28;20037;-62
2023/05/02 11:16:59;;;;;;;7.85;2.90;;;;;;;19.46;34.68;102532.41;5052446;28;20025;-62
2023/05/02 11:19:28;;;;;;;7.25;2.78;;;;;;;19.81;33.15;102539.59;5034518;28;20478;-62
2023/05/02 11:22:18;;;;;;;10.23;2.88;;;;;;;19.69;34.08;102543.19;5052390;28;20036;-62
2023/05/02 11:24:46;;;;;;;7.45;2.90;;;;;;;19.29;35.92;102543.13;5052335;28;20032;-62